sensor_id;sensor_type;location;lat;lon;timestamp;pressure;altitude;pressure_sealevel;temperature;humidity
72950;BME280;64868;45.710;9.590;2023-05-24T00:00:34;98638.22;;;18.39;56.27
72950;BME280;64868;45.710;9.590;2023-05-24T00:03:06;98641.50;;;18.35;56.43
72950;BME280;64868;45.710;9.590;2023-05-24T00:05:39;98635.66;;;18.38;56.03
72950;BME280;64868;45.710;9.590;2023-05-24T00:08:11;98639.09;;;18.23;56.95
72950;BME280;64868;45.710;9.590;2023-05-24T00:10:44;98640.28;;;18.21;56.72
72950;BME280;64868;45.710;9.590;2023-05-24T00:13:17;98635.81;;;18.20;56.46
72950;BME280;64868;45.710;9.590;2023-05-24T00:15:49;98629.63;;;18.26;56.18
72950;BME280;64868;45.710;9.590;2023-05-24T00:18:19;98626.66;;;18.19;56.85
72950;BME280;64868;45.710;9.590;2023-05-24T00:20:52;98626.16;;;18.24;56.06
72950;BME280;64868;45.710;9.590;2023-05-24T00:23:23;98617.69;;;18.17;56.90
72950;BME280;64868;45.710;9.590;2023-05-24T00:25:55;98626.81;;;18.18;56.39
72950;BME280;64868;45.710;9.590;2023-05-24T00:28:28;98628.72;;;18.26;56.08
72950;BME280;64868;45.710;9.590;2023-05-24T00:31:01;98610.97;;;18.12;56.62
72950;BME280;64868;45.710;9.590;2023-05-24T00:33:33;98623.38;;;18.16;56.86
72950;BME280;64868;45.710;9.590;2023-05-24T00:36:06;98614.91;;;18.17;56.55
72950;BME280;64868;45.710;9.590;2023-05-24T00:38:39;98620.97;;;18.21;56.16
72950;BME280;64868;45.710;9.590;2023-05-24T00:41:11;98612.34;;;18.08;56.57
72950;BME280;64868;45.710;9.590;2023-05-24T00:43:44;98613.53;;;18.13;56.43
72950;BME280;64868;45.710;9.590;2023-05-24T00:46:15;98612.81;;;18.03;56.82
72950;BME280;64868;45.710;9.590;2023-05-24T00:48:47;98611.09;;;18.02;56.40
72950;BME280;64868;45.710;9.590;2023-05-24T00:51:18;98608.53;;;18.09;56.19
72950;BME280;64868;45.710;9.590;2023-05-24T00:53:51;98600.06;;;18.02;55.86
72950;BME280;64868;45.710;9.590;2023-05-24T00:56:23;98609.38;;;18.01;56.36
72950;BME280;64868;45.710;9.590;2023-05-24T00:58:57;98606.75;;;17.91;56.46
72950;BME280;64868;45.710;9.590;2023-05-24T01:01:28;98610.44;;;18.00;56.64
72950;BME280;64868;45.710;9.590;2023-05-24T01:04:00;98610.75;;;18.05;56.18
72950;BME280;64868;45.710;9.590;2023-05-24T01:06:34;98613.34;;;17.98;57.27
72950;BME280;64868;45.710;9.590;2023-05-24T01:09:26;98616.25;;;17.89;57.20
72950;BME280;64868;45.710;9.590;2023-05-24T01:12:14;98615.41;;;17.88;57.70
72950;BME280;64868;45.710;9.590;2023-05-24T01:15:03;98621.56;;;17.82;57.72
72950;BME280;64868;45.710;9.590;2023-05-24T01:18:01;98620.22;;;17.94;57.93
72950;BME280;64868;45.710;9.590;2023-05-24T01:20:35;98617.66;;;17.93;57.77
72950;BME280;64868;45.710;9.590;2023-05-24T01:26:13;98603.66;;;17.94;57.10
72950;BME280;64868;45.710;9.590;2023-05-24T01:28:46;98604.72;;;17.93;57.88
72950;BME280;64868;45.710;9.590;2023-05-24T01:31:19;98606.94;;;17.90;57.46
72950;BME280;64868;45.710;9.590;2023-05-24T01:33:51;98604.19;;;17.90;57.64
72950;BME280;64868;45.710;9.590;2023-05-24T01:36:24;98615.19;;;17.82;57.88
72950;BME280;64868;45.710;9.590;2023-05-24T01:38:54;98610.00;;;17.79;57.78
72950;BME280;64868;45.710;9.590;2023-05-24T01:42:14;98614.09;;;17.74;58.48
72950;BME280;64868;45.710;9.590;2023-05-24T01:44:28;98605.53;;;17.78;58.34
72950;BME280;64868;45.710;9.590;2023-05-24T01:47:15;98618.81;;;17.82;58.10
72950;BME280;64868;45.710;9.590;2023-05-24T01:49:54;98617.78;;;17.83;58.35
72950;BME280;64868;45.710;9.590;2023-05-24T01:52:29;98617.91;;;17.73;58.61
72950;BME280;64868;45.710;9.590;2023-05-24T01:55:05;98612.72;;;17.70;58.85
72950;BME280;64868;45.710;9.590;2023-05-24T01:57:37;98624.44;;;17.72;58.29
72950;BME280;64868;45.710;9.590;2023-05-24T02:00:08;98616.72;;;17.76;58.23
72950;BME280;64868;45.710;9.590;2023-05-24T02:02:43;98613.22;;;17.66;58.72
72950;BME280;64868;45.710;9.590;2023-05-24T02:05:13;98615.84;;;17.75;58.74
72950;BME280;64868;45.710;9.590;2023-05-24T02:07:43;98613.72;;;17.61;59.28
72950;BME280;64868;45.710;9.590;2023-05-24T02:10:15;98610.25;;;17.51;59.34
72950;BME280;64868;45.710;9.590;2023-05-24T02:12:48;98607.16;;;17.54;59.38
72950;BME280;64868;45.710;9.590;2023-05-24T02:15:18;98623.53;;;17.64;59.42
72950;BME280;64868;45.710;9.590;2023-05-24T02:17:51;98617.78;;;17.49;59.68
72950;BME280;64868;45.710;9.590;2023-05-24T02:20:23;98603.47;;;17.45;59.45
72950;BME280;64868;45.710;9.590;2023-05-24T02:22:53;98608.47;;;17.42;60.21
72950;BME280;64868;45.710;9.590;2023-05-24T02:25:26;98606.84;;;17.31;60.45
72950;BME280;64868;45.710;9.590;2023-05-24T02:27:59;98601.00;;;17.26;60.56
72950;BME280;64868;45.710;9.590;2023-05-24T02:30:29;98616.69;;;17.34;59.93
72950;BME280;64868;45.710;9.590;2023-05-24T02:32:59;98602.25;;;17.32;60.20
72950;BME280;64868;45.710;9.590;2023-05-24T02:35:29;98613.78;;;17.35;60.55
72950;BME280;64868;45.710;9.590;2023-05-24T02:37:59;98614.81;;;17.34;60.22
72950;BME280;64868;45.710;9.590;2023-05-24T02:40:31;98601.88;;;17.35;59.94
72950;BME280;64868;45.710;9.590;2023-05-24T02:43:02;98608.47;;;17.42;59.28
72950;BME280;64868;45.710;9.590;2023-05-24T02:45:34;98605.88;;;17.40;59.81
72950;BME280;64868;45.710;9.590;2023-05-24T02:48:04;98603.31;;;17.39;59.69
72950;BME280;64868;45.710;9.590;2023-05-24T02:50:37;98597.13;;;17.45;59.77
72950;BME280;64868;45.710;9.590;2023-05-24T02:53:07;98604.19;;;17.47;60.05
72950;BME280;64868;45.710;9.590;2023-05-24T02:55:40;98596.63;;;17.58;59.43
72950;BME280;64868;45.710;9.590;2023-05-24T02:58:13;98604.03;;;17.49;60.14
72950;BME280;64868;45.710;9.590;2023-05-24T03:00:45;98605.09;;;17.56;59.20
72950;BME280;64868;45.710;9.590;2023-05-24T03:03:18;98596.13;;;17.54;59.68
72950;BME280;64868;45.710;9.590;2023-05-24T03:05:46;98606.28;;;17.54;59.90
72950;BME280;64868;45.710;9.590;2023-05-24T03:08:18;98604.63;;;17.35;60.50
72950;BME280;64868;45.710;9.590;2023-05-24T03:10:48;98602.06;;;17.33;60.30
72950;BME280;64868;45.710;9.590;2023-05-24T03:13:18;98602.06;;;17.33;61.04
72950;BME280;64868;45.710;9.590;2023-05-24T03:15:48;98600.94;;;17.18;61.67
72950;BME280;64868;45.710;9.590;2023-05-24T03:18:18;98602.38;;;17.30;60.80
72950;BME280;64868;45.710;9.590;2023-05-24T03:20:49;98610.25;;;17.17;61.04
72950;BME280;64868;45.710;9.590;2023-05-24T03:23:21;98598.81;;;17.03;62.75
72950;BME280;64868;45.710;9.590;2023-05-24T03:25:54;98604.75;;;17.17;62.33
72950;BME280;64868;45.710;9.590;2023-05-24T03:28:26;98596.63;;;17.15;61.87
72950;BME280;64868;45.710;9.590;2023-05-24T03:30:56;98599.88;;;17.11;62.17
72950;BME280;64868;45.710;9.590;2023-05-24T03:33:27;98607.78;;;17.06;61.66
72950;BME280;64868;45.710;9.590;2023-05-24T03:35:57;98614.00;;;17.16;61.97
72950;BME280;64868;45.710;9.590;2023-05-24T03:38:27;98601.81;;;17.18;61.88
72950;BME280;64868;45.710;9.590;2023-05-24T03:41:00;98604.84;;;17.07;62.21
72950;BME280;64868;45.710;9.590;2023-05-24T03:43:32;98613.28;;;17.06;62.90
72950;BME280;64868;45.710;9.590;2023-05-24T03:46:05;98614.28;;;17.05;62.62
72950;BME280;64868;45.710;9.590;2023-05-24T03:48:35;98611.41;;;17.06;62.15
72950;BME280;64868;45.710;9.590;2023-05-24T03:51:05;98614.47;;;17.03;62.30
72950;BME280;64868;45.710;9.590;2023-05-24T03:53:35;98621.22;;;17.09;61.88
72950;BME280;64868;45.710;9.590;2023-05-24T03:56:03;98624.44;;;17.30;61.18
72950;BME280;64868;45.710;9.590;2023-05-24T03:58:33;98623.88;;;17.26;60.99
72950;BME280;64868;45.710;9.590;2023-05-24T04:01:06;98617.88;;;17.31;60.83
72950;BME280;64868;45.710;9.590;2023-05-24T04:03:38;98627.91;;;17.32;60.71
72950;BME280;64868;45.710;9.590;2023-05-24T04:06:11;98628.75;;;17.33;61.11
72950;BME280;64868;45.710;9.590;2023-05-24T04:08:44;98624.00;;;17.43;61.49
72950;BME280;64868;45.710;9.590;2023-05-24T04:11:16;98627.09;;;17.48;60.88
72950;BME280;64868;45.710;9.590;2023-05-24T04:13:49;98624.91;;;17.60;60.41
72950;BME280;64868;45.710;9.590;2023-05-24T04:16:24;98630.06;;;17.55;60.09
72950;BME280;64868;45.710;9.590;2023-05-24T04:18:55;98623.53;;;17.56;60.70
72950;BME280;64868;45.710;9.590;2023-05-24T04:21:29;98629.78;;;17.74;60.28
72950;BME280;64868;45.710;9.590;2023-05-24T04:24:02;98623.09;;;17.77;60.02
72950;BME280;64868;45.710;9.590;2023-05-24T04:26:30;98624.22;;;18.00;59.23
72950;BME280;64868;45.710;9.590;2023-05-24T04:29:00;98632.50;;;18.08;59.68
72950;BME280;64868;45.710;9.590;2023-05-24T04:31:32;98631.47;;;18.26;58.38
72950;BME280;64868;45.710;9.590;2023-05-24T04:34:03;98634.94;;;18.36;58.51
72950;BME280;64868;45.710;9.590;2023-05-24T04:36:35;98633.59;;;18.56;57.95
72950;BME280;64868;45.710;9.590;2023-05-24T04:39:05;98637.22;;;18.81;57.14
72950;BME280;64868;45.710;9.590;2023-05-24T04:41:38;98638.53;;;20.13;53.74
72950;BME280;64868;45.710;9.590;2023-05-24T04:44:11;98641.53;;;21.18;49.75
72950;BME280;64868;45.710;9.590;2023-05-24T04:46:41;98640.59;;;21.55;49.28
72950;BME280;64868;45.710;9.590;2023-05-24T04:49:11;98639.81;;;21.32;49.01
72950;BME280;64868;45.710;9.590;2023-05-24T04:51:44;98632.41;;;19.95;53.01
72950;BME280;64868;45.710;9.590;2023-05-24T04:54:14;98648.00;;;19.48;54.47
72950;BME280;64868;45.710;9.590;2023-05-24T04:56:47;98646.63;;;19.44;54.59
72950;BME280;64868;45.710;9.590;2023-05-24T04:59:17;98642.66;;;19.38;55.40
72950;BME280;64868;45.710;9.590;2023-05-24T05:01:47;98643.69;;;19.37;54.96
72950;BME280;64868;45.710;9.590;2023-05-24T05:04:19;98636.97;;;19.40;55.46
72950;BME280;64868;45.710;9.590;2023-05-24T05:06:52;98647.28;;;19.62;55.14
72950;BME280;64868;45.710;9.590;2023-05-24T05:09:25;98647.09;;;19.64;54.81
72950;BME280;64868;45.710;9.590;2023-05-24T05:11:55;98647.09;;;19.56;54.88
72950;BME280;64868;45.710;9.590;2023-05-24T05:14:27;98648.09;;;19.71;54.30
72950;BME280;64868;45.710;9.590;2023-05-24T05:17:00;98650.78;;;19.87;53.81
72950;BME280;64868;45.710;9.590;2023-05-24T05:19:33;98655.56;;;20.02;53.55
72950;BME280;64868;45.710;9.590;2023-05-24T05:22:05;98660.13;;;20.17;52.75
72950;BME280;64868;45.710;9.590;2023-05-24T05:24:36;98656.41;;;20.33;52.41
72950;BME280;64868;45.710;9.590;2023-05-24T05:27:06;98659.97;;;20.50;52.34
72950;BME280;64868;45.710;9.590;2023-05-24T05:29:39;98652.00;;;20.70;51.87
72950;BME280;64868;45.710;9.590;2023-05-24T05:32:07;98651.69;;;20.88;51.27
72950;BME280;64868;45.710;9.590;2023-05-24T05:34:40;98646.72;;;20.98;50.94
72950;BME280;64868;45.710;9.590;2023-05-24T05:37:10;98646.31;;;21.24;49.64
72950;BME280;64868;45.710;9.590;2023-05-24T05:39:43;98650.66;;;21.42;49.31
72950;BME280;64868;45.710;9.590;2023-05-24T05:42:15;98656.59;;;21.53;49.28
72950;BME280;64868;45.710;9.590;2023-05-24T05:44:45;98648.84;;;21.49;49.54
72950;BME280;64868;45.710;9.590;2023-05-24T05:47:18;98654.78;;;21.75;49.74
72950;BME280;64868;45.710;9.590;2023-05-24T05:49:51;98648.78;;;22.08;48.69
72950;BME280;64868;45.710;9.590;2023-05-24T05:52:23;98656.47;;;22.06;48.02
72950;BME280;64868;45.710;9.590;2023-05-24T05:54:56;98653.81;;;22.34;47.59
72950;BME280;64868;45.710;9.590;2023-05-24T05:57:29;98659.78;;;24.95;42.47
72950;BME280;64868;45.710;9.590;2023-05-24T05:59:59;98667.06;;;28.59;34.98
72950;BME280;64868;45.710;9.590;2023-05-24T06:02:27;98656.97;;;30.13;31.37
72950;BME280;64868;45.710;9.590;2023-05-24T06:05:00;98670.19;;;30.52;30.26
72950;BME280;64868;45.710;9.590;2023-05-24T06:07:32;98667.38;;;31.38;28.77
72950;BME280;64868;45.710;9.590;2023-05-24T06:10:02;98671.19;;;31.66;28.13
72950;BME280;64868;45.710;9.590;2023-05-24T06:12:35;98671.41;;;32.15;27.61
72950;BME280;64868;45.710;9.590;2023-05-24T06:15:10;98669.94;;;31.57;28.44
72950;BME280;64868;45.710;9.590;2023-05-24T06:17:43;98669.66;;;31.58;28.43
72950;BME280;64868;45.710;9.590;2023-05-24T06:20:13;98666.66;;;31.48;28.74
72950;BME280;64868;45.710;9.590;2023-05-24T06:22:43;98672.97;;;32.06;28.10
72950;BME280;64868;45.710;9.590;2023-05-24T06:25:12;98671.19;;;32.87;26.63
72950;BME280;64868;45.710;9.590;2023-05-24T06:27:44;98667.59;;;32.26;27.78
72950;BME280;64868;45.710;9.590;2023-05-24T06:30:14;98669.41;;;30.97;29.33
72950;BME280;64868;45.710;9.590;2023-05-24T06:32:47;98668.50;;;30.92;29.50
72950;BME280;64868;45.710;9.590;2023-05-24T06:35:19;98692.66;;;33.64;26.20
72950;BME280;64868;45.710;9.590;2023-05-24T06:37:52;98685.09;;;34.60;24.74
72950;BME280;64868;45.710;9.590;2023-05-24T06:40:22;98676.44;;;34.34;24.92
72950;BME280;64868;45.710;9.590;2023-05-24T06:42:55;98677.56;;;33.54;26.12
72950;BME280;64868;45.710;9.590;2023-05-24T06:45:27;98679.47;;;29.89;31.27
72950;BME280;64868;45.710;9.590;2023-05-24T06:48:00;98665.25;;;29.37;32.98
72950;BME280;64868;45.710;9.590;2023-05-24T06:50:33;98666.28;;;28.52;33.34
72950;BME280;64868;45.710;9.590;2023-05-24T06:53:05;98674.19;;;26.82;37.77
72950;BME280;64868;45.710;9.590;2023-05-24T06:55:38;98678.41;;;26.01;39.76
72950;BME280;64868;45.710;9.590;2023-05-24T06:58:10;98675.44;;;25.83;40.41
72950;BME280;64868;45.710;9.590;2023-05-24T07:00:46;98668.28;;;27.72;36.38
72950;BME280;64868;45.710;9.590;2023-05-24T07:03:19;98678.91;;;27.45;36.30
72950;BME280;64868;45.710;9.590;2023-05-24T07:05:49;98680.91;;;27.06;37.47
72950;BME280;64868;45.710;9.590;2023-05-24T07:08:19;98682.69;;;26.62;37.96
72950;BME280;64868;45.710;9.590;2023-05-24T07:10:52;98684.97;;;26.33;39.45
72950;BME280;64868;45.710;9.590;2023-05-24T07:13:24;98681.19;;;26.08;39.16
72950;BME280;64868;45.710;9.590;2023-05-24T07:15:54;98691.13;;;26.55;38.46
72950;BME280;64868;45.710;9.590;2023-05-24T07:18:27;98681.47;;;25.53;40.49
72950;BME280;64868;45.710;9.590;2023-05-24T07:20:57;98681.28;;;25.61;40.78
72950;BME280;64868;45.710;9.590;2023-05-24T07:23:30;98686.84;;;25.75;41.08
72950;BME280;64868;45.710;9.590;2023-05-24T07:26:02;98687.66;;;27.98;37.32
72950;BME280;64868;45.710;9.590;2023-05-24T07:28:35;98692.09;;;36.27;24.22
72950;BME280;64868;45.710;9.590;2023-05-24T07:31:05;98697.38;;;39.42;19.79
72950;BME280;64868;45.710;9.590;2023-05-24T07:33:37;98711.28;;;41.88;17.31
72950;BME280;64868;45.710;9.590;2023-05-24T07:36:10;98714.31;;;42.37;16.07
72950;BME280;64868;45.710;9.590;2023-05-24T07:38:40;98710.03;;;42.96;16.35
72950;BME280;64868;45.710;9.590;2023-05-24T07:41:14;98701.56;;;43.66;15.03
72950;BME280;64868;45.710;9.590;2023-05-24T07:43:46;98701.84;;;44.08;14.56
72950;BME280;64868;45.710;9.590;2023-05-24T07:46:19;98697.63;;;45.58;13.73
72950;BME280;64868;45.710;9.590;2023-05-24T07:48:49;98696.88;;;45.41;13.47
72950;BME280;64868;45.710;9.590;2023-05-24T07:51:22;98698.72;;;45.87;12.68
72950;BME280;64868;45.710;9.590;2023-05-24T07:53:54;98698.41;;;45.47;13.64
72950;BME280;64868;45.710;9.590;2023-05-24T07:56:25;98694.31;;;44.88;13.20
72950;BME280;64868;45.710;9.590;2023-05-24T07:58:55;98694.69;;;45.79;12.96
72950;BME280;64868;45.710;9.590;2023-05-24T08:01:36;98695.91;;;44.77;13.32
72950;BME280;64868;45.710;9.590;2023-05-24T08:04:09;98696.38;;;46.34;12.07
72950;BME280;64868;45.710;9.590;2023-05-24T08:06:39;98693.38;;;45.98;12.75
72950;BME280;64868;45.710;9.590;2023-05-24T08:09:12;98691.28;;;46.19;12.09
72950;BME280;64868;45.710;9.590;2023-05-24T08:11:45;98705.00;;;46.80;11.19
72950;BME280;64868;45.710;9.590;2023-05-24T08:14:13;98697.28;;;45.01;12.58
72950;BME280;64868;45.710;9.590;2023-05-24T08:16:43;98689.28;;;44.21;13.31
72950;BME280;64868;45.710;9.590;2023-05-24T08:19:15;98683.97;;;43.93;13.56
72950;BME280;64868;45.710;9.590;2023-05-24T08:21:48;98693.94;;;42.16;14.84
72950;BME280;64868;45.710;9.590;2023-05-24T08:24:19;98693.09;;;43.69;13.45
72950;BME280;64868;45.710;9.590;2023-05-24T08:26:49;98671.66;;;39.04;17.72
72950;BME280;64868;45.710;9.590;2023-05-24T08:29:19;98669.72;;;32.58;24.97
72950;BME280;64868;45.710;9.590;2023-05-24T08:31:46;98664.34;;;31.28;27.37
72950;BME280;64868;45.710;9.590;2023-05-24T08:34:19;98666.84;;;30.39;29.58
72950;BME280;64868;45.710;9.590;2023-05-24T08:36:52;98664.88;;;30.39;29.61
72950;BME280;64868;45.710;9.590;2023-05-24T08:39:24;98661.47;;;30.25;29.57
72950;BME280;64868;45.710;9.590;2023-05-24T08:41:57;98660.31;;;30.50;29.23
72950;BME280;64868;45.710;9.590;2023-05-24T08:44:31;98659.00;;;30.69;30.17
72950;BME280;64868;45.710;9.590;2023-05-24T08:47:06;98656.63;;;30.49;29.96
72950;BME280;64868;45.710;9.590;2023-05-24T08:49:37;98645.84;;;29.94;30.03
72950;BME280;64868;45.710;9.590;2023-05-24T08:52:10;98646.47;;;29.85;30.78
72950;BME280;64868;45.710;9.590;2023-05-24T08:54:41;98665.38;;;29.42;31.52
72950;BME280;64868;45.710;9.590;2023-05-24T08:57:14;98661.66;;;28.46;33.53
72950;BME280;64868;45.710;9.590;2023-05-24T08:59:45;98664.25;;;28.11;32.78
72950;BME280;64868;45.710;9.590;2023-05-24T09:02:16;98661.78;;;28.51;31.98
72950;BME280;64868;45.710;9.590;2023-05-24T09:04:50;98665.25;;;28.95;31.11
72950;BME280;64868;45.710;9.590;2023-05-24T09:07:19;98658.13;;;28.81;32.23
72950;BME280;64868;45.710;9.590;2023-05-24T09:10:03;98662.09;;;29.45;30.90
72950;BME280;64868;45.710;9.590;2023-05-24T09:12:32;98666.06;;;28.35;32.51
72950;BME280;64868;45.710;9.590;2023-05-24T09:15:02;98662.59;;;28.40;33.51
72950;BME280;64868;45.710;9.590;2023-05-24T09:17:37;98658.94;;;28.40;33.73
72950;BME280;64868;45.710;9.590;2023-05-24T09:20:10;98662.16;;;28.36;33.21
72950;BME280;64868;45.710;9.590;2023-05-24T09:22:43;98653.19;;;27.54;34.27
72950;BME280;64868;45.710;9.590;2023-05-24T09:25:16;98641.75;;;27.31;34.62
72950;BME280;64868;45.710;9.590;2023-05-24T09:27:49;98632.44;;;27.99;33.80
72950;BME280;64868;45.710;9.590;2023-05-24T09:30:21;98647.41;;;28.11;33.47
72950;BME280;64868;45.710;9.590;2023-05-24T09:33:03;98650.06;;;28.06;33.68
72950;BME280;64868;45.710;9.590;2023-05-24T09:35:38;98649.03;;;28.37;33.04
72950;BME280;64868;45.710;9.590;2023-05-24T09:38:17;98644.28;;;28.98;32.50
72950;BME280;64868;45.710;9.590;2023-05-24T09:40:58;98646.16;;;28.74;33.38
72950;BME280;64868;45.710;9.590;2023-05-24T09:43:32;98641.25;;;28.21;33.64
72950;BME280;64868;45.710;9.590;2023-05-24T09:46:08;98637.44;;;27.97;33.51
72950;BME280;64868;45.710;9.590;2023-05-24T09:48:39;98644.81;;;29.06;32.21
72950;BME280;64868;45.710;9.590;2023-05-24T09:51:12;98637.63;;;29.11;31.73
72950;BME280;64868;45.710;9.590;2023-05-24T09:53:45;98642.66;;;28.11;33.69
72950;BME280;64868;45.710;9.590;2023-05-24T09:56:18;98640.84;;;27.37;35.26
72950;BME280;64868;45.710;9.590;2023-05-24T09:58:51;98645.84;;;28.64;33.22
72950;BME280;64868;45.710;9.590;2023-05-24T10:01:22;98640.09;;;28.89;32.75
72950;BME280;64868;45.710;9.590;2023-05-24T10:03:58;98639.34;;;28.33;33.24
72950;BME280;64868;45.710;9.590;2023-05-24T10:06:28;98647.00;;;29.04;32.40
72950;BME280;64868;45.710;9.590;2023-05-24T10:09:02;98636.88;;;28.06;34.10
72950;BME280;64868;45.710;9.590;2023-05-24T10:11:33;98644.19;;;28.26;35.13
72950;BME280;64868;45.710;9.590;2023-05-24T10:14:03;98649.44;;;28.71;33.76
72950;BME280;64868;45.710;9.590;2023-05-24T10:16:35;98643.38;;;28.55;33.35
72950;BME280;64868;45.710;9.590;2023-05-24T10:19:11;98648.78;;;29.29;33.44
72950;BME280;64868;45.710;9.590;2023-05-24T10:21:43;98647.31;;;28.18;35.63
72950;BME280;64868;45.710;9.590;2023-05-24T10:24:20;98646.34;;;28.91;34.24
72950;BME280;64868;45.710;9.590;2023-05-24T10:26:53;98641.72;;;29.62;32.60
72950;BME280;64868;45.710;9.590;2023-05-24T10:29:32;98641.69;;;30.09;31.66
72950;BME280;64868;45.710;9.590;2023-05-24T10:32:07;98635.09;;;29.91;32.22
72950;BME280;64868;45.710;9.590;2023-05-24T10:34:40;98634.66;;;30.75;32.07
72950;BME280;64868;45.710;9.590;2023-05-24T10:37:13;98648.75;;;30.63;32.20
72950;BME280;64868;45.710;9.590;2023-05-24T10:39:48;98629.25;;;29.81;33.19
72950;BME280;64868;45.710;9.590;2023-05-24T10:42:20;98626.59;;;29.63;34.12
72950;BME280;64868;45.710;9.590;2023-05-24T10:44:54;98632.97;;;28.74;35.59
72950;BME280;64868;45.710;9.590;2023-05-24T10:47:28;98628.88;;;28.10;36.94
72950;BME280;64868;45.710;9.590;2023-05-24T10:50:20;98622.19;;;28.59;36.19
72950;BME280;64868;45.710;9.590;2023-05-24T10:53:19;98621.78;;;29.51;34.30
72950;BME280;64868;45.710;9.590;2023-05-24T11:01:26;98600.88;;;29.36;35.31
72950;BME280;64868;45.710;9.590;2023-05-24T11:04:07;98613.34;;;29.98;33.76
72950;BME280;64868;45.710;9.590;2023-05-24T11:07:11;98606.25;;;30.48;33.30
72950;BME280;64868;45.710;9.590;2023-05-24T11:09:44;98615.16;;;30.04;33.53
72950;BME280;64868;45.710;9.590;2023-05-24T11:12:17;98596.63;;;29.56;34.94
72950;BME280;64868;45.710;9.590;2023-05-24T11:14:49;98602.34;;;28.73;36.59
72950;BME280;64868;45.710;9.590;2023-05-24T11:17:18;98608.34;;;29.42;35.26
72950;BME280;64868;45.710;9.590;2023-05-24T11:19:54;98588.94;;;29.75;35.15
72950;BME280;64868;45.710;9.590;2023-05-24T11:22:26;98587.97;;;29.81;34.66
72950;BME280;64868;45.710;9.590;2023-05-24T11:24:59;98587.41;;;29.96;33.40
72950;BME280;64868;45.710;9.590;2023-05-24T11:27:34;98585.28;;;30.15;33.34
72950;BME280;64868;45.710;9.590;2023-05-24T11:30:12;98585.56;;;30.99;32.04
72950;BME280;64868;45.710;9.590;2023-05-24T11:32:48;98583.31;;;31.69;31.11
72950;BME280;64868;45.710;9.590;2023-05-24T11:35:21;98579.41;;;30.86;32.47
72950;BME280;64868;45.710;9.590;2023-05-24T11:37:52;98565.94;;;30.88;32.77
72950;BME280;64868;45.710;9.590;2023-05-24T11:40:24;98575.41;;;31.15;32.44
72950;BME280;64868;45.710;9.590;2023-05-24T11:42:54;98564.56;;;31.07;33.46
72950;BME280;64868;45.710;9.590;2023-05-24T11:45:27;98561.56;;;30.51;33.16
72950;BME280;64868;45.710;9.590;2023-05-24T11:48:03;98575.00;;;29.80;34.91
72950;BME280;64868;45.710;9.590;2023-05-24T11:50:43;98560.97;;;30.21;34.77
72950;BME280;64868;45.710;9.590;2023-05-24T11:53:14;98559.38;;;30.13;35.10
72950;BME280;64868;45.710;9.590;2023-05-24T11:55:47;98562.63;;;29.93;35.08
72950;BME280;64868;45.710;9.590;2023-05-24T11:58:29;98560.84;;;29.64;34.89
72950;BME280;64868;45.710;9.590;2023-05-24T12:01:04;98560.66;;;30.34;34.16
72950;BME280;64868;45.710;9.590;2023-05-24T12:03:37;98554.38;;;31.57;31.90
72950;BME280;64868;45.710;9.590;2023-05-24T12:06:10;98555.03;;;32.25;31.52
72950;BME280;64868;45.710;9.590;2023-05-24T12:08:40;98554.22;;;32.78;29.75
72950;BME280;64868;45.710;9.590;2023-05-24T12:11:13;98554.34;;;31.35;33.01
72950;BME280;64868;45.710;9.590;2023-05-24T12:13:41;98541.38;;;30.26;34.12
72950;BME280;64868;45.710;9.590;2023-05-24T12:16:14;98544.56;;;29.77;34.59
72950;BME280;64868;45.710;9.590;2023-05-24T12:18:45;98537.66;;;29.33;36.57
72950;BME280;64868;45.710;9.590;2023-05-24T12:21:16;98532.38;;;29.72;35.08
72950;BME280;64868;45.710;9.590;2023-05-24T12:23:48;98530.91;;;30.67;33.87
72950;BME280;64868;45.710;9.590;2023-05-24T12:26:24;98529.88;;;31.57;32.66
72950;BME280;64868;45.710;9.590;2023-05-24T12:28:55;98529.22;;;30.83;32.93
72950;BME280;64868;45.710;9.590;2023-05-24T12:31:25;98537.72;;;31.55;32.74
72950;BME280;64868;45.710;9.590;2023-05-24T12:33:58;98528.09;;;31.73;32.06
72950;BME280;64868;45.710;9.590;2023-05-24T12:36:32;98521.84;;;32.10;31.33
72950;BME280;64868;45.710;9.590;2023-05-24T12:39:05;98520.13;;;31.48;32.92
72950;BME280;64868;45.710;9.590;2023-05-24T12:41:49;98507.47;;;30.78;33.99
72950;BME280;64868;45.710;9.590;2023-05-24T12:44:22;98520.44;;;30.79;33.98
72950;BME280;64868;45.710;9.590;2023-05-24T12:46:55;98511.31;;;30.15;35.28
72950;BME280;64868;45.710;9.590;2023-05-24T12:49:26;98503.69;;;29.46;36.29
72950;BME280;64868;45.710;9.590;2023-05-24T12:51:58;98499.56;;;29.14;35.94
72950;BME280;64868;45.710;9.590;2023-05-24T12:54:31;98504.06;;;28.79;36.54
72950;BME280;64868;45.710;9.590;2023-05-24T12:57:01;98488.81;;;29.22;35.61
72950;BME280;64868;45.710;9.590;2023-05-24T12:59:29;98486.44;;;29.66;35.08
72950;BME280;64868;45.710;9.590;2023-05-24T13:01:59;98484.97;;;30.33;34.78
72950;BME280;64868;45.710;9.590;2023-05-24T13:04:32;98480.84;;;31.02;33.13
72950;BME280;64868;45.710;9.590;2023-05-24T13:07:04;98478.63;;;30.71;33.28
72950;BME280;64868;45.710;9.590;2023-05-24T13:09:37;98464.19;;;30.67;34.51
72950;BME280;64868;45.710;9.590;2023-05-24T13:12:08;98453.34;;;31.10;32.83
72950;BME280;64868;45.710;9.590;2023-05-24T13:14:41;98441.88;;;30.44;33.19
72950;BME280;64868;45.710;9.590;2023-05-24T13:17:14;98440.56;;;31.19;32.87
72950;BME280;64868;45.710;9.590;2023-05-24T13:19:44;98445.56;;;31.17;33.26
72950;BME280;64868;45.710;9.590;2023-05-24T13:22:16;98441.50;;;31.08;34.02
72950;BME280;64868;45.710;9.590;2023-05-24T13:24:49;98443.88;;;31.16;33.91
72950;BME280;64868;45.710;9.590;2023-05-24T13:27:21;98445.00;;;30.64;34.99
72950;BME280;64868;45.710;9.590;2023-05-24T13:29:49;98441.78;;;30.56;34.15
72950;BME280;64868;45.710;9.590;2023-05-24T13:32:22;98435.22;;;30.50;35.13
72950;BME280;64868;45.710;9.590;2023-05-24T13:34:52;98442.13;;;30.14;35.14
72950;BME280;64868;45.710;9.590;2023-05-24T13:37:24;98442.19;;;30.02;35.96